Time;durP1;ratioP1;P1;durP2;ratioP2;P2;SDS_P1;SDS_P2;PMS_P1;PMS_P2;Temp;Humidity;BMP_temperature;BMP_pressure;BME280_temperature;BME280_humidity;BME280_pressure;Samples;Min_cycle;Max_cycle;Signal;HPM_P1;HPM_P2
2022/09/01 00:00:40;;;;;;;9.02;5.63;;;20.00;54.10;;;;;;5095708;28;20084;-84
2022/09/01 00:03:09;;;;;;;8.43;5.47;;;19.80;54.80;;;;;;5095519;28;20147;-85
2022/09/01 00:05:35;;;;;;;7.18;5.45;;;19.80;43.60;;;;;;5095628;28;20372;-84
2022/09/01 00:08:02;;;;;;;5.88;5.38;;;19.70;45.90;;;;;;5095451;28;20032;-84
2022/09/01 00:10:28;;;;;;;7.72;5.50;;;19.80;45.80;;;;;;5095134;28;20020;-84
2022/09/01 00:12:54;;;;;;;8.18;5.40;;;19.70;37.20;;;;;;5095136;28;20472;-84
2022/09/01 00:15:19;;;;;;;7.00;5.20;;;19.80;34.90;;;;;;5110843;28;20055;-84
2022/09/01 00:17:45;;;;;;;10.20;5.20;;;19.90;38.80;;;;;;5115210;28;20080;-84
2022/09/01 00:20:11;;;;;;;8.05;5.60;;;19.90;31.40;;;;;;5115916;28;20361;-84
2022/09/01 00:22:37;;;;;;;7.10;5.10;;;19.70;33.60;;;;;;5115581;28;20402;-84
2022/09/01 00:25:04;;;;;;;7.55;5.97;;;19.70;24.80;;;;;;5115226;28;20023;-84
2022/09/01 00:27:30;;;;;;;7.13;5.50;;;19.70;47.60;;;;;;5115349;28;20031;-84
2022/09/01 00:29:56;;;;;;;9.68;5.95;;;19.70;76.70;;;;;;5087251;28;20042;-84
2022/09/01 00:32:21;;;;;;;6.35;5.38;;;19.70;42.40;;;;;;5094822;28;20178;-84
2022/09/01 00:34:47;;;;;;;7.25;6.07;;;19.80;48.70;;;;;;5095232;28;20093;-84
2022/09/01 00:37:12;;;;;;;8.23;5.45;;;19.70;50.40;;;;;;5094645;28;20468;-84
2022/09/01 00:39:38;;;;;;;5.75;5.25;;;19.60;44.70;;;;;;5094737;28;20035;-84
2022/09/01 00:42:04;;;;;;;10.20;5.40;;;19.60;40.20;;;;;;5094796;28;20550;-84
2022/09/01 00:44:30;;;;;;;6.28;5.25;;;19.60;44.90;;;;;;5094946;28;20456;-84
2022/09/01 00:46:56;;;;;;;10.57;5.22;;;19.60;41.60;;;;;;5094512;28;20023;-85
2022/09/01 00:49:30;;;;;;;6.72;5.63;;;19.50;40.90;;;;;;5094972;28;20024;-84
2022/09/01 00:52:06;;;;;;;8.30;5.38;;;19.50;51.20;;;;;;5094234;28;20067;-84
2022/09/01 00:54:38;;;;;;;6.57;5.50;;;19.30;46.60;;;;;;5094667;28;20122;-84
2022/09/01 00:57:07;;;;;;;6.18;5.57;;;19.20;45.60;;;;;;5094211;28;20024;-84
2022/09/01 00:59:34;;;;;;;7.25;4.75;;;19.20;38.30;;;;;;5094558;28;20050;-84
2022/09/01 01:02:00;;;;;;;6.40;5.32;;;19.30;42.90;;;;;;5094345;28;20031;-84
2022/09/01 01:04:25;;;;;;;8.70;5.60;;;19.20;40.40;;;;;;5094607;28;20395;-84
2022/09/01 01:07:00;;;;;;;5.45;4.95;;;19.10;56.30;;;;;;5093988;28;20103;-84
2022/09/01 01:09:30;;;;;;;6.72;5.15;;;19.10;67.70;;;;;;5094363;28;20024;-84
2022/09/01 01:11:59;;;;;;;7.85;5.63;;;19.00;49.00;;;;;;5094208;28;20052;-84
2022/09/01 01:14:30;;;;;;;7.82;6.45;;;18.90;47.80;;;;;;5101603;28;20032;-84
2022/09/01 01:16:57;;;;;;;8.25;5.70;;;18.90;38.10;;;;;;5114758;28;20506;-85
2022/09/01 01:23:08;;;;;;;8.30;6.18;;;18.80;43.80;;;;;;5114623;28;20027;-84
2022/09/01 01:25:58;;;;;;;8.35;6.03;;;18.80;45.50;;;;;;5095878;28;20140;-84
2022/09/01 01:28:30;;;;;;;8.50;5.70;;;18.70;42.00;;;;;;5101893;28;20106;-85
2022/09/01 01:31:17;;;;;;;6.50;5.90;;;18.60;40.40;;;;;;5095287;28;20044;-84
2022/09/01 01:33:49;;;;;;;7.68;5.93;;;18.60;47.10;;;;;;5075308;28;20123;-84
2022/09/01 01:36:31;;;;;;;8.68;5.88;;;18.60;47.70;;;;;;5093002;28;20027;-84
2022/09/01 01:39:00;;;;;;;7.22;5.97;;;18.60;48.80;;;;;;5093799;28;20016;-84
2022/09/01 01:41:28;;;;;;;7.85;5.88;;;18.60;50.20;;;;;;5093550;28;20028;-84
2022/09/01 01:43:58;;;;;;;10.32;6.38;;;18.50;44.70;;;;;;5093857;28;20448;-84
2022/09/01 01:46:24;;;;;;;6.40;5.80;;;18.60;41.30;;;;;;5093663;28;20489;-84
2022/09/01 01:48:51;;;;;;;9.63;5.35;;;18.50;43.70;;;;;;5093506;28;20107;-84
2022/09/01 01:51:20;;;;;;;8.40;5.05;;;18.60;50.60;;;;;;5093351;28;20031;-84
2022/09/01 01:53:51;;;;;;;8.23;5.28;;;18.70;49.70;;;;;;5093375;28;20039;-85
2022/09/01 01:56:18;;;;;;;6.55;5.88;;;18.60;42.50;;;;;;5093591;28;20021;-84
2022/09/01 01:58:44;;;;;;;7.18;5.63;;;18.50;44.10;;;;;;5093341;28;20491;-84
2022/09/01 02:01:11;;;;;;;7.82;5.53;;;18.40;48.50;;;;;;5093238;28;20016;-84
2022/09/01 02:03:38;;;;;;;8.93;5.32;;;18.50;49.70;;;;;;5093477;28;20426;-85
2022/09/01 02:06:09;;;;;;;6.50;5.47;;;18.50;46.90;;;;;;5092795;28;20099;-85
2022/09/01 02:08:36;;;;;;;5.80;5.22;;;18.60;45.20;;;;;;5093429;28;20126;-84
2022/09/01 02:11:04;;;;;;;6.20;5.60;;;18.60;41.30;;;;;;5093181;28;20039;-84
2022/09/01 02:13:30;;;;;;;5.80;5.00;;;18.50;44.40;;;;;;5092838;28;20052;-84
2022/09/01 02:15:59;;;;;;;7.50;4.50;;;18.40;42.90;;;;;;5093350;28;20059;-84
2022/09/01 02:18:37;;;;;;;5.30;4.80;;;18.40;45.90;;;;;;5074725;28;20502;-84
2022/09/01 02:21:10;;;;;;;5.63;4.40;;;18.40;48.20;;;;;;5092882;28;20115;-84
2022/09/01 02:23:37;;;;;;;7.07;5.30;;;18.50;45.40;;;;;;5092602;28;20058;-84
2022/09/01 02:26:05;;;;;;;5.35;4.80;;;18.50;46.10;;;;;;5092929;28;20031;-84
2022/09/01 02:28:35;;;;;;;5.97;5.00;;;18.60;49.20;;;;;;5092707;28;20088;-84
2022/09/01 02:31:02;;;;;;;4.95;4.55;;;18.50;47.70;;;;;;5091991;28;20052;-86
2022/09/01 02:33:29;;;;;;;6.97;4.70;;;18.40;47.10;;;;;;5092180;28;20105;-84
2022/09/01 02:36:00;;;;;;;5.00;4.60;;;18.30;45.50;;;;;;5092964;28;20040;-84
2022/09/01 02:38:28;;;;;;;5.65;4.72;;;18.40;41.50;;;;;;5092571;28;20032;-84
2022/09/01 02:40:55;;;;;;;6.07;5.00;;;18.30;41.20;;;;;;5092444;28;20035;-84
2022/09/01 02:43:21;;;;;;;8.80;4.88;;;18.20;46.00;;;;;;5092944;28;20024;-84
2022/09/01 02:45:54;;;;;;;6.75;4.80;;;18.30;46.80;;;;;;5092566;28;20069;-84
2022/09/01 02:48:41;;;;;;;6.85;5.40;;;18.30;48.90;;;;;;5091221;28;20023;-84
2022/09/01 02:51:11;;;;;;;5.82;4.97;;;18.40;52.70;;;;;;5092310;28;20024;-84
2022/09/01 02:53:38;;;;;;;7.07;4.85;;;18.40;51.00;;;;;;5092185;28;20046;-84
2022/09/01 02:56:15;;;;;;;6.07;4.57;;;18.30;47.60;;;;;;5092499;28;20032;-85
2022/09/01 02:58:47;;;;;;;5.10;4.60;;;18.40;46.90;;;;;;5092385;28;20032;-84
2022/09/01 03:01:23;;;;;;;5.47;4.88;;;18.40;49.30;;;;;;5092756;28;20020;-84
2022/09/01 03:03:51;;;;;;;5.50;5.00;;;18.40;44.10;;;;;;5091904;28;20042;-85
2022/09/01 03:06:19;;;;;;;5.72;5.30;;;18.20;41.50;;;;;;5092233;28;20433;-85
2022/09/01 03:08:46;;;;;;;6.18;5.20;;;18.20;41.50;;;;;;5092192;28;20089;-85
2022/09/01 03:11:11;;;;;;;5.43;4.93;;;18.20;46.60;;;;;;5092390;28;20094;-84
2022/09/01 03:13:39;;;;;;;9.98;5.43;;;18.30;45.00;;;;;;5091943;28;20111;-85
2022/09/01 03:16:06;;;;;;;5.93;5.40;;;18.20;50.40;;;;;;5092607;28;20024;-84
2022/09/01 03:18:33;;;;;;;6.03;5.45;;;18.10;54.30;;;;;;5091703;28;20025;-84
2022/09/01 03:21:01;;;;;;;7.25;5.25;;;18.10;48.90;;;;;;5092021;28;20589;-84
2022/09/01 03:23:32;;;;;;;5.70;5.20;;;18.10;53.60;;;;;;5092168;28;20043;-85
2022/09/01 03:25:59;;;;;;;7.05;5.30;;;18.10;47.40;;;;;;5091870;28;20026;-85
2022/09/01 03:28:25;;;;;;;5.90;5.40;;;18.10;45.90;;;;;;5092396;28;20048;-84
2022/09/01 03:30:53;;;;;;;6.25;5.63;;;18.00;45.10;;;;;;5091634;28;20102;-84
2022/09/01 03:33:20;;;;;;;8.20;5.53;;;17.90;53.30;;;;;;5091449;28;20561;-85
2022/09/01 03:35:46;;;;;;;6.00;5.43;;;18.00;46.50;;;;;;5091959;28;20028;-84
2022/09/01 03:38:22;;;;;;;6.63;5.43;;;18.00;58.40;;;;;;5092039;28;20063;-84
2022/09/01 03:40:51;;;;;;;8.70;5.72;;;18.00;51.80;;;;;;5091790;28;20035;-84
2022/09/01 03:43:18;;;;;;;6.07;5.47;;;17.90;54.30;;;;;;5092246;28;20484;-84
2022/09/01 03:45:44;;;;;;;5.90;5.32;;;17.90;52.10;;;;;;5091234;28;20038;-84
2022/09/01 03:48:14;;;;;;;8.98;5.28;;;17.90;48.40;;;;;;5091899;28;20062;-85
2022/09/01 03:50:45;;;;;;;5.97;5.40;;;17.80;50.90;;;;;;5091778;28;20476;-85
2022/09/01 03:53:13;;;;;;;6.80;5.28;;;17.90;52.00;;;;;;5091642;28;20059;-85
2022/09/01 03:55:39;;;;;;;6.22;5.60;;;17.80;54.90;;;;;;5091800;28;20035;-84
2022/09/01 03:58:07;;;;;;;5.63;5.22;;;17.80;50.40;;;;;;5091934;28;20024;-85
2022/09/01 04:00:37;;;;;;;5.63;5.13;;;17.80;51.80;;;;;;5094825;28;20111;-84
2022/09/01 04:03:06;;;;;;;7.47;5.38;;;17.80;53.70;;;;;;5095923;28;20361;-84
2022/09/01 04:05:34;;;;;;;6.05;5.45;;;17.80;53.00;;;;;;5095422;28;20107;-84
2022/09/01 04:08:08;;;;;;;5.97;5.38;;;17.80;49.00;;;;;;5095596;28;20047;-84
2022/09/01 04:10:37;;;;;;;8.32;6.15;;;17.70;50.10;;;;;;5095783;28;20066;-84
2022/09/01 04:13:04;;;;;;;5.85;5.35;;;17.60;46.40;;;;;;5095231;28;20042;-85
2022/09/01 04:15:31;;;;;;;6.05;5.55;;;17.70;47.50;;;;;;5111864;28;20043;-84
2022/09/01 04:18:09;;;;;;;7.28;5.68;;;17.80;41.20;;;;;;5115690;28;20035;-84
2022/09/01 04:20:49;;;;;;;8.07;6.03;;;17.70;44.60;;;;;;5097502;28;20375;-85
2022/09/01 04:23:22;;;;;;;5.85;5.40;;;17.60;45.50;;;;;;5115481;28;20033;-84
2022/09/01 04:25:49;;;;;;;6.53;5.88;;;17.60;46.80;;;;;;5115906;28;20027;-85
2022/09/01 04:28:21;;;;;;;6.38;5.72;;;17.60;42.20;;;;;;5115465;28;20027;-84
2022/09/01 04:30:54;;;;;;;7.13;5.85;;;17.50;47.50;;;;;;5097690;28;20534;-84
2022/09/01 04:33:36;;;;;;;7.93;5.90;;;17.50;54.90;;;;;;5095165;28;20487;-84
2022/09/01 04:36:04;;;;;;;8.05;6.07;;;17.50;52.10;;;;;;5095228;28;20383;-84
2022/09/01 04:38:30;;;;;;;7.18;6.20;;;17.40;48.70;;;;;;5094698;28;20024;-84
2022/09/01 04:40:56;;;;;;;9.95;5.95;;;17.50;50.40;;;;;;5094812;28;20095;-84
2022/09/01 04:43:25;;;;;;;8.45;6.38;;;17.50;61.20;;;;;;5094860;28;20032;-84
2022/09/01 04:45:52;;;;;;;9.57;5.95;;;17.70;48.10;;;;;;5094427;28;20095;-85
2022/09/01 04:48:19;;;;;;;7.50;6.20;;;17.60;48.00;;;;;;5094657;28;20055;-85
2022/09/01 04:50:46;;;;;;;6.68;5.90;;;17.50;57.00;;;;;;5094919;28;20035;-84
2022/09/01 04:53:11;;;;;;;7.05;6.13;;;17.40;46.70;;;;;;5094558;28;20031;-84
2022/09/01 04:55:42;;;;;;;8.73;6.70;;;17.40;53.30;;;;;;5094542;28;20024;-84
2022/09/01 04:58:12;;;;;;;9.55;6.43;;;17.30;71.40;;;;;;5094331;28;20020;-84
2022/09/01 05:00:39;;;;;;;10.32;6.35;;;17.30;83.70;;;;;;5094628;28;20423;-84
2022/09/01 05:03:05;;;;;;;8.25;5.93;;;17.40;65.60;;;;;;5094363;28;20099;-84
2022/09/01 05:05:41;;;;;;;6.88;6.07;;;17.30;62.50;;;;;;5094635;28;20388;-85
2022/09/01 05:08:13;;;;;;;8.40;6.38;;;17.20;68.00;;;;;;5094242;28;20074;-84
2022/09/01 05:10:44;;;;;;;7.30;6.45;;;17.20;53.70;;;;;;5093409;28;20028;-85
2022/09/01 05:13:16;;;;;;;8.55;6.68;;;17.10;51.70;;;;;;5094049;28;20016;-84
2022/09/01 05:15:45;;;;;;;9.30;7.45;;;17.10;50.50;;;;;;5112488;28;20036;-85
2022/09/01 05:18:22;;;;;;;8.02;6.97;;;17.20;49.80;;;;;;5114269;28;20023;-84
2022/09/01 05:20:49;;;;;;;9.32;7.68;;;17.20;50.40;;;;;;5114333;28;20368;-85
2022/09/01 05:23:18;;;;;;;11.32;6.95;;;17.30;51.00;;;;;;5114704;28;20094;-84
2022/09/01 05:25:45;;;;;;;8.65;6.95;;;17.30;50.50;;;;;;5114400;28;20032;-85
2022/09/01 05:28:11;;;;;;;9.32;7.38;;;17.20;52.50;;;;;;5113895;28;20019;-85
2022/09/01 05:30:39;;;;;;;7.97;7.22;;;17.20;45.50;;;;;;5098224;28;20084;-85
2022/09/01 05:33:11;;;;;;;8.65;7.82;;;17.30;55.30;;;;;;5075347;28;20388;-84
2022/09/01 05:35:40;;;;;;;8.68;7.50;;;17.40;51.70;;;;;;5093727;28;20035;-85
2022/09/01 05:38:09;;;;;;;9.15;6.80;;;17.50;53.30;;;;;;5093775;28;20027;-84
2022/09/01 05:40:39;;;;;;;13.20;7.72;;;17.60;52.20;;;;;;5093656;28;20039;-85
2022/09/01 05:43:06;;;;;;;8.63;7.18;;;17.50;49.80;;;;;;5093449;28;20039;-84
2022/09/01 05:45:35;;;;;;;11.70;7.25;;;17.50;52.30;;;;;;5093582;28;20392;-84
2022/09/01 05:48:02;;;;;;;9.90;7.75;;;17.50;48.10;;;;;;5093373;28;20039;-84
2022/09/01 05:50:27;;;;;;;8.18;6.75;;;17.50;47.70;;;;;;5093788;28;20024;-84
2022/09/01 05:52:53;;;;;;;8.05;7.18;;;17.60;52.90;;;;;;5093375;28;20434;-84
2022/09/01 05:55:19;;;;;;;9.55;7.20;;;17.60;49.40;;;;;;5093371;28;20392;-84
2022/09/01 05:57:46;;;;;;;8.00;6.88;;;17.80;44.90;;;;;;5093083;28;20034;-84
2022/09/01 06:00:13;;;;;;;11.55;7.13;;;18.00;62.40;;;;;;5093217;28;20492;-85
2022/09/01 06:02:41;;;;;;;9.15;7.40;;;18.10;59.30;;;;;;5093076;28;20035;-85
2022/09/01 06:05:08;;;;;;;11.93;6.72;;;18.10;60.70;;;;;;5093144;28;20106;-85
2022/09/01 06:07:39;;;;;;;10.95;7.88;;;18.10;60.60;;;;;;5093350;28;20066;-85
2022/09/01 06:10:06;;;;;;;8.35;7.43;;;18.10;56.30;;;;;;5093213;28;20028;-85
2022/09/01 06:12:32;;;;;;;10.63;8.07;;;18.20;59.70;;;;;;5092671;28;20179;-84
2022/09/01 06:14:58;;;;;;;11.38;7.95;;;18.30;72.00;;;;;;5105080;28;20055;-84
2022/09/01 06:17:25;;;;;;;9.55;7.93;;;18.40;55.90;;;;;;5113241;28;20022;-84
2022/09/01 06:19:56;;;;;;;8.93;7.80;;;18.40;60.40;;;;;;5113453;28;20027;-85
2022/09/01 06:22:23;;;;;;;12.07;7.07;;;18.50;63.20;;;;;;5113398;28;20024;-84
2022/09/01 06:24:50;;;;;;;9.18;7.50;;;18.50;58.40;;;;;;5113083;28;20027;-84
2022/09/01 06:27:19;;;;;;;11.65;8.13;;;18.60;55.80;;;;;;5094805;28;20027;-84
2022/09/01 06:29:48;;;;;;;12.75;8.00;;;18.70;57.40;;;;;;5104583;28;20093;-84
2022/09/01 06:32:13;;;;;;;9.75;8.70;;;18.70;55.50;;;;;;5092628;28;20082;-85
2022/09/01 06:34:42;;;;;;;12.57;7.93;;;18.80;56.70;;;;;;5092441;28;20067;-84
2022/09/01 06:37:08;;;;;;;10.30;7.57;;;18.80;62.20;;;;;;5092876;28;20020;-85
2022/09/01 06:39:34;;;;;;;8.85;7.95;;;18.90;62.60;;;;;;5091958;28;20041;-85
2022/09/01 06:42:01;;;;;;;13.15;8.23;;;19.00;57.50;;;;;;5092173;28;20024;-89
2022/09/01 06:44:29;;;;;;;11.48;8.48;;;19.00;56.30;;;;;;5092291;28;20118;-89
2022/09/01 06:46:55;;;;;;;10.20;8.30;;;19.10;59.80;;;;;;5092753;28;20408;-89
2022/09/01 06:49:28;;;;;;;14.23;7.97;;;19.00;75.00;;;;;;5092542;28;20032;-89
2022/09/01 06:51:54;;;;;;;8.40;7.55;;;19.00;65.80;;;;;;5091874;28;20071;-90
2022/09/01 06:54:20;;;;;;;9.35;7.68;;;18.90;55.50;;;;;;5091715;28;20047;-91
2022/09/01 06:56:46;;;;;;;11.77;8.20;;;19.00;57.30;;;;;;5092261;28;20024;-90
2022/09/01 06:59:14;;;;;;;10.77;7.80;;;19.10;58.50;;;;;;5092153;28;20541;-90
2022/09/01 07:01:40;;;;;;;10.45;8.38;;;19.20;57.20;;;;;;5092317;28;20027;-90
2022/09/01 07:04:06;;;;;;;10.50;9.13;;;19.20;58.10;;;;;;5092185;28;20389;-90
2022/09/01 07:06:31;;;;;;;11.07;9.73;;;19.10;58.00;;;;;;5092099;28;20020;-90
2022/09/01 07:09:00;;;;;;;12.68;9.75;;;19.20;64.60;;;;;;5091836;28;20062;-90
2022/09/01 07:11:28;;;;;;;13.38;9.15;;;19.30;68.70;;;;;;5092197;28;20028;-89
2022/09/01 07:14:00;;;;;;;11.98;9.15;;;19.40;68.00;;;;;;5092265;28;20105;-90
2022/09/01 07:16:28;;;;;;;12.02;10.60;;;19.60;68.40;;;;;;5092146;28;20016;-90
2022/09/01 07:19:00;;;;;;;11.27;10.07;;;19.60;66.10;;;;;;5091109;28;20054;-87
2022/09/01 07:21:28;;;;;;;15.10;9.50;;;19.60;71.60;;;;;;5099102;28;20077;-87
2022/09/01 07:23:54;;;;;;;10.60;8.95;;;19.70;64.90;;;;;;5102740;28;20024;-87
2022/09/01 07:26:21;;;;;;;11.75;9.82;;;19.90;63.10;;;;;;5091786;28;20396;-87
2022/09/01 07:28:49;;;;;;;15.15;8.93;;;20.00;66.30;;;;;;5105546;28;20049;-87
2022/09/01 07:31:30;;;;;;;10.02;9.10;;;20.20;63.80;;;;;;5091678;28;20520;-87
2022/09/01 07:33:59;;;;;;;11.18;9.35;;;20.30;61.20;;;;;;5092175;28;20039;-87
2022/09/01 07:36:25;;;;;;;11.13;10.02;;;20.50;65.20;;;;;;5096041;28;20040;-88
2022/09/01 07:38:52;;;;;;;13.68;9.68;;;20.40;62.20;;;;;;5095223;28;20480;-87
2022/09/01 07:41:23;;;;;;;11.18;9.98;;;20.30;65.60;;;;;;5096225;28;20050;-87
2022/09/01 07:43:55;;;;;;;11.88;9.60;;;20.50;66.80;;;;;;5095457;28;20032;-87
2022/09/01 07:46:22;;;;;;;17.75;10.48;;;20.40;64.10;;;;;;5102871;28;20024;-87
2022/09/01 07:48:50;;;;;;;12.13;9.63;;;20.70;64.80;;;;;;5096096;28;20028;-87
2022/09/01 07:51:18;;;;;;;11.85;10.10;;;20.60;59.70;;;;;;5095768;28;20519;-87
2022/09/01 07:53:47;;;;;;;10.48;9.48;;;20.70;68.10;;;;;;5094957;28;20040;-87
2022/09/01 07:56:14;;;;;;;11.20;10.20;;;20.80;65.60;;;;;;5095511;28;20016;-87
2022/09/01 07:58:40;;;;;;;12.20;9.75;;;21.10;70.40;;;;;;5095959;28;20032;-87
2022/09/01 08:01:12;;;;;;;10.65;9.25;;;21.30;65.80;;;;;;5095621;28;20034;-87
2022/09/01 08:03:39;;;;;;;12.27;9.52;;;21.30;69.70;;;;;;5095130;28;20043;-87
2022/09/01 08:06:09;;;;;;;14.60;9.82;;;21.50;65.40;;;;;;5095843;28;20472;-87
2022/09/01 08:08:36;;;;;;;9.70;8.70;;;21.60;69.50;;;;;;5095018;28;20016;-87
2022/09/01 08:11:02;;;;;;;11.18;10.15;;;21.60;68.60;;;;;;5095406;28;20036;-87
2022/09/01 08:13:28;;;;;;;10.07;8.95;;;21.60;67.30;;;;;;5094663;28;20079;-87
2022/09/01 08:15:54;;;;;;;11.35;8.95;;;21.70;68.50;;;;;;5094710;28;20522;-87
2022/09/01 08:18:19;;;;;;;9.68;8.88;;;21.80;71.90;;;;;;5095591;28;20028;-87
2022/09/01 08:20:46;;;;;;;11.75;8.93;;;21.90;73.90;;;;;;5094917;28;20032;-87
2022/09/01 08:23:17;;;;;;;12.65;9.15;;;22.00;72.80;;;;;;5094813;28;20613;-87
2022/09/01 08:25:43;;;;;;;10.43;8.57;;;22.20;73.30;;;;;;5095243;28;20024;-87
2022/09/01 08:28:10;;;;;;;9.52;8.63;;;22.20;76.50;;;;;;5095194;28;20377;-87
2022/09/01 08:30:38;;;;;;;9.30;8.27;;;22.20;80.00;;;;;;5094657;28;20103;-86
2022/09/01 08:33:04;;;;;;;9.48;8.57;;;22.20;81.30;;;;;;5094898;28;20020;-86
2022/09/01 08:35:30;;;;;;;8.68;7.90;;;22.20;73.00;;;;;;5095166;28;20047;-86
2022/09/01 08:37:57;;;;;;;7.53;6.93;;;22.50;70.10;;;;;;5095241;28;20060;-86
2022/09/01 08:40:23;;;;;;;10.70;8.35;;;22.70;79.00;;;;;;5094694;28;20077;-86
2022/09/01 08:43:03;;;;;;;6.70;6.10;;;22.90;77.80;;;;;;5094739;28;20085;-86
2022/09/01 08:45:32;;;;;;;8.25;6.10;;;23.00;75.20;;;;;;5093489;28;20028;-86
2022/09/01 08:48:10;;;;;;;6.05;5.50;;;23.00;73.60;;;;;;5094677;28;20087;-86
2022/09/01 08:50:37;;;;;;;6.60;6.00;;;23.00;78.60;;;;;;5094529;28;20376;-85
2022/09/01 08:53:35;;;;;;;6.43;5.70;;;23.20;78.80;;;;;;5094629;28;20399;-86
2022/09/01 08:56:01;;;;;;;6.45;5.85;;;23.20;80.80;;;;;;5094540;28;20407;-86
2022/09/01 08:58:31;;;;;;;6.50;5.88;;;23.30;75.40;;;;;;5094306;28;20017;-86
2022/09/01 09:01:26;;;;;;;6.53;5.75;;;23.60;74.70;;;;;;5094416;28;20028;-87
2022/09/01 09:04:20;;;;;;;5.65;5.18;;;23.70;79.60;;;;;;5093958;28;20020;-86
2022/09/01 09:06:55;;;;;;;6.70;6.00;;;23.80;83.20;;;;;;5094337;28;20039;-86
2022/09/01 09:09:30;;;;;;;8.68;5.47;;;23.70;81.80;;;;;;5094236;28;20429;-85
2022/09/01 09:12:27;;;;;;;8.18;5.65;;;23.90;86.60;;;;;;5093824;28;20422;-86
2022/09/01 09:15:15;;;;;;;6.40;5.78;;;23.80;79.10;;;;;;5085274;28;20020;-85
2022/09/01 09:17:52;;;;;;;5.97;5.47;;;24.00;76.60;;;;;;5088286;28;20025;-86
2022/09/01 09:20:17;;;;;;;5.70;5.20;;;23.90;75.30;;;;;;5086503;28;20107;-85
2022/09/01 09:22:46;;;;;;;6.40;5.72;;;24.00;67.80;;;;;;5073620;28;20059;-86
2022/09/01 09:25:15;;;;;;;6.07;5.47;;;24.20;77.00;;;;;;5073644;28;20027;-85
2022/09/01 09:27:43;;;;;;;6.25;5.50;;;24.20;87.60;;;;;;5074019;28;20389;-86
2022/09/01 09:30:22;;;;;;;5.68;5.18;;;24.10;76.90;;;;;;5085120;28;20027;-85
2022/09/01 09:32:55;;;;;;;5.50;5.10;;;24.20;84.40;;;;;;5093783;28;20035;-85
2022/09/01 09:35:35;;;;;;;6.70;5.40;;;24.30;82.90;;;;;;5092603;28;20039;-87
2022/09/01 09:38:20;;;;;;;5.20;4.80;;;24.50;77.60;;;;;;5093428;28;20132;-86
2022/09/01 09:41:06;;;;;;;5.90;4.90;;;24.70;82.20;;;;;;5093646;28;20418;-86
2022/09/01 09:43:36;;;;;;;6.47;5.57;;;24.90;76.30;;;;;;5092104;28;20012;-85
2022/09/01 09:46:41;;;;;;;5.22;4.72;;;25.10;87.60;;;;;;5092052;28;20032;-85
2022/09/01 09:49:18;;;;;;;4.82;4.43;;;25.10;88.40;;;;;;5092533;28;20111;-85
2022/09/01 09:51:49;;;;;;;5.18;4.60;;;25.50;89.00;;;;;;5092502;28;20114;-88
2022/09/01 09:54:25;;;;;;;5.15;4.65;;;25.80;85.10;;;;;;5092146;28;20047;-86
2022/09/01 09:57:10;;;;;;;5.63;4.97;;;28.20;93.10;;;;;;5092614;28;20438;-86
2022/09/01 09:59:57;;;;;;;4.80;4.30;;;33.50;95.40;;;;;;5092388;28;20456;-86
2022/09/01 10:02:32;;;;;;;5.63;4.47;;;36.90;95.90;;;;;;5098108;28;20031;-85
2022/09/01 10:05:01;;;;;;;4.45;4.05;;;39.80;94.70;;;;;;5094269;28;20035;-86
2022/09/01 10:07:29;;;;;;;4.93;3.85;;;40.80;92.80;;;;;;5092362;28;20024;-85
2022/09/01 10:09:57;;;;;;;4.85;4.05;;;41.50;92.50;;;;;;5074934;28;20077;-86
2022/09/01 10:12:24;;;;;;;6.15;4.05;;;42.50;89.80;;;;;;5091928;28;20063;-86
2022/09/01 10:15:04;;;;;;;5.32;4.75;;;41.50;87.20;;;;;;5101311;28;20115;-86
2022/09/01 10:17:40;;;;;;;5.10;4.70;;;41.50;86.00;;;;;;5092472;28;20032;-86
2022/09/01 10:20:26;;;;;;;5.07;4.57;;;42.80;82.50;;;;;;5092501;28;20020;-86
2022/09/01 10:22:53;;;;;;;4.93;4.53;;;43.00;75.90;;;;;;5092401;28;20557;-86
2022/09/01 10:25:21;;;;;;;4.47;4.07;;;44.30;71.80;;;;;;5092609;28;20106;-85
2022/09/01 10:27:51;;;;;;;4.60;4.20;;;44.30;71.60;;;;;;5091988;28;20024;-86
2022/09/01 10:30:19;;;;;;;6.50;4.13;;;45.10;67.60;;;;;;5092719;28;20125;-86
2022/09/01 10:32:47;;;;;;;4.25;3.85;;;44.90;63.40;;;;;;5091899;28;20055;-86
2022/09/01 10:35:33;;;;;;;3.95;3.55;;;45.70;60.20;;;;;;5092331;28;20036;-87
2022/09/01 10:38:08;;;;;;;3.88;3.58;;;44.30;60.00;;;;;;5091818;28;20051;-86
2022/09/01 10:40:37;;;;;;;4.40;4.07;;;46.20;56.90;;;;;;5075451;28;20484;-87
2022/09/01 10:43:27;;;;;;;3.72;3.42;;;45.90;54.50;;;;;;5093175;28;20035;-87
2022/09/01 10:45:53;;;;;;;3.92;3.63;;;45.60;53.40;;;;;;5112201;28;20031;-87
2022/09/01 10:48:19;;;;;;;4.40;3.53;;;46.20;52.10;;;;;;5091620;28;20030;-86
2022/09/01 10:50:49;;;;;;;4.03;3.70;;;45.90;51.10;;;;;;5092288;28;20032;-87
2022/09/01 10:53:40;;;;;;;3.83;3.53;;;45.40;51.90;;;;;;5092193;28;20028;-87
2022/09/01 10:56:14;;;;;;;3.92;3.60;;;45.20;51.30;;;;;;5091653;28;20442;-87
2022/09/01 10:58:43;;;;;;;3.85;3.50;;;45.10;50.90;;;;;;5091663;28;20502;-87
2022/09/01 11:01:08;;;;;;;3.47;3.28;;;45.10;49.50;;;;;;5107947;28;20043;-86
2022/09/01 11:03:55;;;;;;;3.60;3.30;;;44.60;48.00;;;;;;5092574;28;20478;-87
2022/09/01 11:06:40;;;;;;;3.78;3.45;;;44.50;48.90;;;;;;5092052;28;20020;-87
2022/09/01 11:09:24;;;;;;;4.03;3.17;;;44.80;46.80;;;;;;5091410;28;20540;-87
2022/09/01 11:12:01;;;;;;;3.50;3.30;;;46.70;45.90;;;;;;5091800;28;20450;-88
2022/09/01 11:14:34;;;;;;;4.03;3.40;;;47.20;42.40;;;;;;5091926;28;20508;-87
2022/09/01 11:17:14;;;;;;;3.80;3.50;;;48.20;40.70;;;;;;5091709;28;20028;-88
2022/09/01 11:19:44;;;;;;;3.63;3.20;;;46.90;42.60;;;;;;5091470;28;20032;-89
2022/09/01 11:22:17;;;;;;;3.50;3.30;;;48.00;39.00;;;;;;5091851;28;20388;-89
2022/09/01 11:25:06;;;;;;;3.80;3.50;;;48.60;36.50;;;;;;5091965;28;20020;-89
2022/09/01 11:27:56;;;;;;;5.45;4.10;;;47.70;47.80;;;;;;5091852;28;20103;-89
2022/09/01 11:30:59;;;;;;;3.80;3.50;;;47.40;36.40;;;;;;5078103;28;20499;-89
2022/09/01 11:33:31;;;;;;;3.95;3.50;;;47.70;35.90;;;;;;4989734;28;20081;-89
2022/09/01 11:36:01;;;;;;;5.40;3.75;;;48.20;34.30;;;;;;4989808;28;20108;-89
2022/09/01 11:38:31;;;;;;;4.18;3.78;;;46.90;37.10;;;;;;4990191;28;20038;-89
2022/09/01 11:40:57;;;;;;;3.85;3.50;;;46.00;38.80;;;;;;4990400;28;20105;-89
2022/09/01 11:43:24;;;;;;;3.65;3.35;;;46.40;35.80;;;;;;4990468;28;20117;-90
2022/09/01 11:46:15;;;;;;;4.47;3.58;;;45.20;34.00;;;;;;4989994;28;20041;-89
2022/09/01 11:48:46;;;;;;;3.63;3.25;;;46.30;36.30;;;;;;4990199;28;20068;-89
2022/09/01 11:51:13;;;;;;;3.70;3.40;;;46.50;34.30;;;;;;4991079;28;20050;-89
2022/09/01 11:53:41;;;;;;;3.97;3.60;;;47.20;42.50;;;;;;4990227;28;20058;-90
2022/09/01 11:56:23;;;;;;;4.00;3.65;;;47.60;32.80;;;;;;4990465;28;20039;-89
2022/09/01 11:58:48;;;;;;;3.78;3.15;;;48.20;31.20;;;;;;4989966;28;20506;-90
2022/09/01 12:01:21;;;;;;;3.72;3.42;;;47.40;30.80;;;;;;4990237;28;20116;-89
2022/09/01 12:03:50;;;;;;;3.85;3.58;;;47.40;30.00;;;;;;4989986;28;20053;-89
2022/09/01 12:06:28;;;;;;;3.72;3.42;;;48.00;30.40;;;;;;4990056;28;20038;-89
2022/09/01 12:08:56;;;;;;;3.38;3.17;;;47.80;30.80;;;;;;4989943;28;20033;-89
2022/09/01 12:11:30;;;;;;;3.67;3.35;;;48.30;38.60;;;;;;5078615;28;20036;-90
2022/09/01 12:13:57;;;;;;;3.50;3.30;;;46.40;31.30;;;;;;5091251;28;20032;-88
2022/09/01 12:16:23;;;;;;;4.22;3.60;;;46.60;31.60;;;;;;5091408;28;20024;-89
2022/09/01 12:18:51;;;;;;;4.90;3.33;;;46.50;28.90;;;;;;5091788;28;20040;-88
2022/09/01 12:21:41;;;;;;;5.80;3.40;;;46.20;30.90;;;;;;5094462;28;20087;-89
2022/09/01 12:24:21;;;;;;;3.63;3.25;;;46.10;30.00;;;;;;5094548;28;20426;-89
2022/09/01 12:26:53;;;;;;;4.07;3.20;;;47.70;26.70;;;;;;5095051;28;20031;-89
2022/09/01 12:29:19;;;;;;;3.95;3.10;;;48.00;25.30;;;;;;5093953;28;20024;-89
2022/09/01 12:31:49;;;;;;;3.30;3.00;;;47.20;26.60;;;;;;5091521;28;20040;-89
2022/09/01 12:34:32;;;;;;;3.33;3.10;;;47.10;27.60;;;;;;5093975;28;20400;-88
2022/09/01 12:37:14;;;;;;;5.55;3.10;;;47.30;26.30;;;;;;5094248;28;20101;-88
2022/09/01 12:39:43;;;;;;;3.40;3.03;;;48.00;27.10;;;;;;5094967;28;20028;-89
2022/09/01 12:42:18;;;;;;;3.63;2.88;;;48.50;24.30;;;;;;5094456;28;20024;-88
2022/09/01 12:44:49;;;;;;;3.55;3.15;;;49.30;22.80;;;;;;5094804;28;20426;-89
2022/09/01 12:47:33;;;;;;;3.83;3.10;;;48.50;25.60;;;;;;5094584;28;20028;-89
2022/09/01 12:50:05;;;;;;;3.67;2.72;;;48.00;23.30;;;;;;5094738;28;20176;-89
2022/09/01 12:52:43;;;;;;;3.00;2.80;;;48.40;23.50;;;;;;5094594;28;20024;-89
2022/09/01 12:55:16;;;;;;;3.30;2.78;;;48.00;24.30;;;;;;5094593;28;20488;-89
2022/09/01 12:57:52;;;;;;;3.95;2.80;;;45.70;27.60;;;;;;5094164;28;20016;-89
2022/09/01 13:00:22;;;;;;;3.05;2.85;;;46.60;27.70;;;;;;5094986;28;20079;-89
2022/09/01 13:02:51;;;;;;;2.83;2.63;;;47.10;25.10;;;;;;5093512;28;20052;-88
2022/09/01 13:05:20;;;;;;;2.80;2.55;;;47.80;34.10;;;;;;5093763;28;20062;-89
2022/09/01 13:07:45;;;;;;;3.80;2.60;;;48.20;24.50;;;;;;5094171;28;20034;-89